Time;durP1;ratioP1;P1;durP2;ratioP2;P2;SDS_P1;SDS_P2;PMS_P1;PMS_P2;Temp;Humidity;BMP_temperature;BMP_pressure;BME280_temperature;BME280_humidity;BME280_pressure;Samples;Min_cycle;Max_cycle;Signal;HPM_P1;HPM_P2
2021/09/08 00:00:34;;;;;;;24.73;17.25;;;20.30;99.90;;;;;;5013395;28;20468;-78
2021/09/08 00:03:00;;;;;;;23.48;17.73;;;20.20;99.90;;;;;;5046448;28;20376;-78
2021/09/08 00:05:26;;;;;;;23.00;17.58;;;20.10;99.90;;;;;;5046758;28;20541;-78
2021/09/08 00:07:51;;;;;;;24.02;18.13;;;19.90;99.90;;;;;;5013942;28;20026;-78
2021/09/08 00:10:17;;;;;;;22.58;17.80;;;20.00;99.90;;;;;;5045768;28;20033;-78
2021/09/08 00:12:42;;;;;;;26.80;18.35;;;20.20;99.90;;;;;;5013793;28;20026;-78
2021/09/08 00:15:10;;;;;;;23.02;17.95;;;20.10;99.90;;;;;;5014100;28;20026;-78
2021/09/08 00:17:36;;;;;;;25.48;18.38;;;19.90;99.90;;;;;;5014185;28;20037;-78
2021/09/08 00:20:02;;;;;;;25.10;17.27;;;19.80;99.90;;;;;;5046576;28;20026;-78
2021/09/08 00:22:28;;;;;;;23.20;18.00;;;19.80;99.90;;;;;;5013172;28;20533;-78
2021/09/08 00:24:53;;;;;;;26.00;17.85;;;19.70;99.90;;;;;;5013621;28;20022;-78
2021/09/08 00:27:19;;;;;;;23.25;17.83;;;19.70;99.90;;;;;;5015356;28;20453;-78
2021/09/08 00:29:45;;;;;;;25.30;18.83;;;19.60;99.90;;;;;;5015120;28;20553;-78
2021/09/08 00:32:10;;;;;;;26.13;19.00;;;19.60;99.90;;;;;;5045952;28;20073;-78
2021/09/08 00:34:36;;;;;;;24.50;17.73;;;19.60;99.90;;;;;;5045779;28;20044;-78
2021/09/08 00:37:02;;;;;;;25.88;19.02;;;19.70;99.90;;;;;;5045977;28;20137;-78
2021/09/08 00:39:27;;;;;;;27.27;18.83;;;19.60;99.90;;;;;;5049075;28;20041;-78
2021/09/08 00:41:53;;;;;;;24.15;18.15;;;19.60;99.90;;;;;;5050182;28;20490;-78
2021/09/08 00:44:19;;;;;;;25.42;19.15;;;19.60;99.90;;;;;;5018100;28;20475;-78
2021/09/08 00:46:45;;;;;;;24.20;18.90;;;19.70;99.90;;;;;;5016047;28;20087;-78
2021/09/08 00:49:12;;;;;;;26.35;19.58;;;19.50;99.90;;;;;;5049958;28;20022;-79
2021/09/08 00:51:38;;;;;;;26.98;18.50;;;19.40;99.90;;;;;;5050246;28;20026;-79
2021/09/08 00:54:12;;;;;;;29.80;20.13;;;19.30;99.90;;;;;;5051645;28;20390;-79
2021/09/08 00:56:40;;;;;;;25.02;19.42;;;19.40;99.90;;;;;;5051050;28;20026;-79
2021/09/08 00:59:06;;;;;;;27.45;19.73;;;19.30;99.90;;;;;;5051058;28;20030;-79
2021/09/08 01:01:32;;;;;;;25.95;19.13;;;19.30;99.90;;;;;;5051513;28;20030;-79
2021/09/08 01:03:57;;;;;;;25.20;18.85;;;19.20;99.90;;;;;;5051266;28;20462;-79
2021/09/08 01:06:23;;;;;;;27.33;19.85;;;19.20;99.90;;;;;;5017344;28;20029;-79
2021/09/08 01:08:49;;;;;;;26.42;19.10;;;19.10;99.90;;;;;;5051436;28;20534;-79
2021/09/08 01:11:15;;;;;;;29.60;20.13;;;19.00;99.90;;;;;;5050697;28;20026;-79
2021/09/08 01:13:41;;;;;;;24.13;19.20;;;19.00;99.90;;;;;;5018214;28;20083;-79
2021/09/08 01:16:07;;;;;;;27.63;19.98;;;19.10;99.90;;;;;;5018112;28;20053;-79
2021/09/08 01:18:33;;;;;;;23.70;19.83;;;19.00;99.90;;;;;;5018527;28;20025;-79
2021/09/08 01:20:59;;;;;;;30.30;21.13;;;18.90;99.90;;;;;;5050599;28;20022;-78
2021/09/08 01:23:25;;;;;;;29.08;20.35;;;19.00;99.90;;;;;;5050112;28;20037;-78
2021/09/08 01:25:51;;;;;;;28.77;20.73;;;19.00;99.90;;;;;;5049797;28;20038;-78
2021/09/08 01:28:17;;;;;;;26.02;19.55;;;18.90;99.90;;;;;;5017769;28;20119;-78
2021/09/08 01:30:43;;;;;;;27.85;20.52;;;18.80;99.90;;;;;;5018386;28;20034;-78
2021/09/08 01:33:11;;;;;;;25.23;19.98;;;18.70;99.90;;;;;;5051172;28;20022;-78
2021/09/08 01:35:37;;;;;;;28.45;20.67;;;18.60;99.90;;;;;;5050103;28;20088;-78
2021/09/08 01:38:03;;;;;;;26.60;19.63;;;18.50;99.90;;;;;;5018076;28;20026;-78
2021/09/08 01:40:28;;;;;;;27.63;21.35;;;18.50;99.90;;;;;;5018586;28;20468;-78
2021/09/08 01:42:55;;;;;;;35.30;20.83;;;18.40;99.90;;;;;;5019008;28;20034;-78
2021/09/08 01:45:20;;;;;;;27.73;21.38;;;18.40;99.90;;;;;;5017284;28;20033;-78
2021/09/08 01:47:46;;;;;;;33.13;22.73;;;18.60;99.90;;;;;;5016553;28;20386;-78
2021/09/08 01:50:12;;;;;;;30.65;22.50;;;18.60;99.90;;;;;;5049485;28;20071;-78
2021/09/08 01:52:38;;;;;;;26.20;21.00;;;18.50;99.90;;;;;;5050171;28;20046;-78
2021/09/08 01:55:06;;;;;;;28.83;21.10;;;18.50;99.90;;;;;;5017441;28;20018;-78
2021/09/08 01:57:32;;;;;;;31.13;21.55;;;18.40;99.90;;;;;;5016307;28;20085;-78
2021/09/08 01:59:58;;;;;;;27.85;20.58;;;18.50;99.90;;;;;;5049031;28;20387;-78
2021/09/08 02:02:24;;;;;;;27.38;21.70;;;18.40;99.90;;;;;;5049219;28;20022;-78
2021/09/08 02:04:49;;;;;;;30.67;21.42;;;18.40;99.90;;;;;;5017637;28;20026;-78
2021/09/08 02:07:15;;;;;;;32.30;22.15;;;18.50;99.90;;;;;;5050006;28;20482;-78
2021/09/08 02:09:40;;;;;;;30.60;21.80;;;18.40;99.90;;;;;;5015995;28;20065;-78
2021/09/08 02:12:06;;;;;;;29.33;21.83;;;18.30;99.90;;;;;;5047738;28;20510;-78
2021/09/08 02:14:32;;;;;;;31.80;21.92;;;18.20;99.90;;;;;;5048061;28;20018;-78
2021/09/08 02:16:57;;;;;;;34.38;21.88;;;18.20;99.90;;;;;;5047539;28;20116;-79
2021/09/08 02:19:23;;;;;;;29.25;22.13;;;18.10;99.90;;;;;;5014308;28;20068;-78
2021/09/08 02:21:50;;;;;;;28.67;21.58;;;18.00;99.90;;;;;;5047250;28;20021;-78
2021/09/08 02:24:15;;;;;;;28.13;21.70;;;18.00;99.90;;;;;;5047873;28;20018;-78
2021/09/08 02:26:41;;;;;;;28.33;21.17;;;17.90;99.90;;;;;;5047776;28;20022;-78
2021/09/08 02:29:07;;;;;;;34.45;23.23;;;18.00;99.90;;;;;;5016069;28;20018;-78
2021/09/08 02:31:33;;;;;;;31.00;22.63;;;17.90;99.90;;;;;;5047798;28;20224;-79
2021/09/08 02:33:59;;;;;;;32.58;23.15;;;17.90;99.90;;;;;;5047701;28;20062;-79
2021/09/08 02:36:24;;;;;;;29.38;22.20;;;18.10;99.90;;;;;;5014722;28;20034;-78
2021/09/08 02:38:52;;;;;;;28.40;21.77;;;18.00;99.90;;;;;;5046825;28;20026;-78
2021/09/08 02:41:17;;;;;;;27.88;21.48;;;18.00;99.90;;;;;;5015194;28;20030;-78
2021/09/08 02:43:43;;;;;;;28.10;21.52;;;18.00;99.90;;;;;;5013590;28;20041;-79
2021/09/08 02:46:09;;;;;;;27.50;21.10;;;18.00;99.90;;;;;;5046943;28;20026;-78
2021/09/08 02:48:36;;;;;;;31.33;21.60;;;17.80;99.90;;;;;;5013946;28;20029;-78
2021/09/08 02:51:03;;;;;;;35.28;22.75;;;17.70;99.90;;;;;;5046873;28;20036;-78
2021/09/08 02:53:29;;;;;;;25.33;20.77;;;17.70;99.90;;;;;;5015023;28;20505;-79
2021/09/08 02:55:55;;;;;;;35.92;22.08;;;17.70;99.90;;;;;;5047325;28;20365;-78
2021/09/08 02:58:20;;;;;;;31.15;22.80;;;17.70;99.90;;;;;;5046488;28;20033;-78
2021/09/08 03:00:46;;;;;;;31.15;22.23;;;17.60;99.90;;;;;;5013513;28;20029;-78
2021/09/08 03:03:12;;;;;;;37.50;24.05;;;17.70;99.90;;;;;;5015252;28;20040;-78
2021/09/08 03:05:37;;;;;;;31.70;23.55;;;17.70;99.90;;;;;;5015234;28;20022;-78
2021/09/08 03:08:03;;;;;;;30.80;23.48;;;17.70;99.90;;;;;;5046356;28;20124;-78
2021/09/08 03:10:31;;;;;;;32.85;22.67;;;17.60;99.90;;;;;;5014777;28;20033;-78
2021/09/08 03:12:57;;;;;;;30.48;22.95;;;17.60;99.90;;;;;;5014853;28;20029;-78
2021/09/08 03:15:22;;;;;;;32.97;22.48;;;17.70;99.90;;;;;;5014281;28;20018;-78
2021/09/08 03:17:48;;;;;;;29.92;22.55;;;17.70;99.90;;;;;;5046340;28;20025;-78
2021/09/08 03:20:14;;;;;;;35.08;21.63;;;17.60;99.90;;;;;;5047466;28;20030;-78
2021/09/08 03:22:40;;;;;;;31.55;21.95;;;17.50;99.90;;;;;;5046960;28;20033;-78
2021/09/08 03:25:07;;;;;;;32.22;21.20;;;17.30;99.90;;;;;;5015617;28;20030;-78
2021/09/08 03:27:33;;;;;;;28.65;20.85;;;17.20;99.90;;;;;;5013724;28;20037;-78
2021/09/08 03:29:58;;;;;;;31.88;20.42;;;17.10;99.90;;;;;;5014429;28;20387;-78
2021/09/08 03:32:24;;;;;;;33.47;21.67;;;17.10;99.90;;;;;;5014312;28;20483;-78
2021/09/08 03:34:50;;;;;;;32.13;20.67;;;17.20;99.90;;;;;;5014655;28;20029;-79
2021/09/08 03:37:15;;;;;;;34.28;22.95;;;17.20;99.90;;;;;;5013181;28;20036;-78
2021/09/08 03:39:41;;;;;;;32.22;23.67;;;17.20;99.90;;;;;;5045967;28;20061;-78
2021/09/08 03:42:07;;;;;;;31.15;22.73;;;17.30;99.90;;;;;;5014495;28;20026;-78
2021/09/08 03:44:32;;;;;;;29.80;22.98;;;17.20;99.90;;;;;;5046274;28;20888;-78
2021/09/08 03:46:58;;;;;;;32.25;23.17;;;17.20;99.90;;;;;;5046296;28;20036;-78
2021/09/08 03:49:24;;;;;;;30.13;22.48;;;17.10;99.90;;;;;;5046485;28;20022;-78
2021/09/08 03:51:49;;;;;;;31.00;23.48;;;17.00;99.90;;;;;;5045232;28;20057;-78
2021/09/08 03:54:15;;;;;;;29.70;21.05;;;17.10;99.90;;;;;;5014031;28;20022;-78
2021/09/08 03:56:41;;;;;;;34.25;23.48;;;17.10;99.90;;;;;;5013652;28;20014;-78
2021/09/08 03:59:06;;;;;;;31.65;21.77;;;17.10;99.90;;;;;;5014292;28;20037;-78
2021/09/08 04:01:32;;;;;;;28.42;21.35;;;16.90;99.90;;;;;;5046360;28;20033;-78
2021/09/08 04:03:58;;;;;;;30.35;21.80;;;16.80;99.90;;;;;;5046667;28;20063;-79
2021/09/08 04:06:23;;;;;;;27.17;21.63;;;16.80;99.90;;;;;;5014864;28;20029;-78
2021/09/08 04:08:49;;;;;;;31.60;23.45;;;16.90;99.90;;;;;;5014193;28;20062;-78
2021/09/08 04:11:15;;;;;;;34.50;23.75;;;16.90;99.90;;;;;;5046515;28;20022;-78
2021/09/08 04:13:41;;;;;;;32.83;25.52;;;17.00;99.90;;;;;;5014692;28;20092;-78
2021/09/08 04:16:06;;;;;;;33.47;24.15;;;17.00;99.90;;;;;;5014209;28;20022;-78
2021/09/08 04:18:32;;;;;;;33.88;24.40;;;17.00;99.90;;;;;;5046422;28;20064;-78
2021/09/08 04:20:57;;;;;;;32.55;24.10;;;16.90;99.90;;;;;;5046541;28;20037;-78
2021/09/08 04:23:23;;;;;;;35.72;23.30;;;17.00;99.90;;;;;;5013446;28;20026;-78
2021/09/08 04:25:49;;;;;;;36.47;24.08;;;17.00;99.90;;;;;;5013965;28;20034;-78
2021/09/08 04:28:14;;;;;;;36.28;24.85;;;17.00;99.90;;;;;;5014584;28;20029;-78
2021/09/08 04:30:40;;;;;;;31.55;24.05;;;17.00;99.90;;;;;;5013901;28;20391;-78
2021/09/08 04:33:05;;;;;;;36.88;24.55;;;17.00;99.90;;;;;;5014068;28;20025;-78
2021/09/08 04:35:31;;;;;;;35.17;23.95;;;17.00;99.90;;;;;;5045536;28;20487;-79
2021/09/08 04:37:57;;;;;;;34.35;23.75;;;16.90;99.90;;;;;;5046118;28;20034;-78
2021/09/08 04:40:22;;;;;;;32.80;23.27;;;16.80;99.90;;;;;;5046831;28;20096;-78
2021/09/08 04:42:48;;;;;;;34.63;24.05;;;16.80;99.90;;;;;;5013251;28;20391;-78
2021/09/08 04:45:14;;;;;;;34.38;25.27;;;16.80;99.90;;;;;;5045094;28;20048;-78
2021/09/08 04:47:39;;;;;;;38.08;24.00;;;16.70;99.90;;;;;;5013945;28;20257;-78
2021/09/08 04:50:06;;;;;;;35.97;23.95;;;16.70;99.90;;;;;;5046909;28;20108;-78
2021/09/08 04:52:32;;;;;;;34.72;24.65;;;16.70;99.90;;;;;;5046052;28;20068;-78
2021/09/08 04:54:58;;;;;;;35.28;25.42;;;16.70;99.90;;;;;;5045913;28;20029;-78
2021/09/08 04:57:25;;;;;;;36.53;26.75;;;16.70;99.90;;;;;;5045346;28;20119;-78
2021/09/08 04:59:50;;;;;;;42.55;26.83;;;16.80;99.90;;;;;;5012869;28;20025;-79
2021/09/08 05:02:16;;;;;;;33.70;24.23;;;16.80;99.90;;;;;;5045108;28;20033;-78
2021/09/08 05:04:42;;;;;;;39.85;26.65;;;16.90;99.90;;;;;;5046289;28;20121;-79
2021/09/08 05:07:07;;;;;;;47.63;28.17;;;17.00;99.90;;;;;;5012811;28;20128;-79
2021/09/08 05:09:33;;;;;;;41.67;28.48;;;17.20;99.90;;;;;;5045393;28;20060;-78
2021/09/08 05:11:58;;;;;;;38.65;26.83;;;17.30;99.90;;;;;;5046616;28;20054;-79
2021/09/08 05:14:24;;;;;;;35.40;26.92;;;17.20;99.90;;;;;;5014319;28;20037;-78
2021/09/08 05:16:50;;;;;;;35.88;24.95;;;17.10;99.90;;;;;;5013408;28;20022;-79
2021/09/08 05:19:15;;;;;;;36.25;23.83;;;17.00;99.90;;;;;;5045103;28;20435;-78
2021/09/08 05:21:41;;;;;;;37.08;24.38;;;17.00;99.90;;;;;;5012038;28;20537;-78
2021/09/08 05:24:07;;;;;;;36.65;23.95;;;16.90;99.90;;;;;;5012950;28;20089;-79
2021/09/08 05:26:32;;;;;;;36.40;24.17;;;17.00;99.90;;;;;;5048742;28;20018;-78
2021/09/08 05:28:58;;;;;;;34.22;22.95;;;17.10;99.90;;;;;;5048597;28;20021;-78
2021/09/08 05:31:25;;;;;;;38.80;23.13;;;17.00;99.90;;;;;;5016581;28;20033;-79
2021/09/08 05:33:50;;;;;;;36.10;21.45;;;16.80;99.90;;;;;;5048910;28;20022;-78
2021/09/08 05:36:16;;;;;;;31.25;22.38;;;16.80;99.90;;;;;;5015757;28;20018;-78
2021/09/08 05:38:43;;;;;;;49.05;23.27;;;16.80;99.90;;;;;;5049541;28;20443;-78
2021/09/08 05:41:10;;;;;;;36.42;21.60;;;16.80;99.90;;;;;;5015074;28;20029;-78
2021/09/08 05:43:36;;;;;;;36.25;23.38;;;16.80;99.90;;;;;;5047449;28;20069;-78
2021/09/08 05:46:03;;;;;;;36.20;22.85;;;16.80;99.90;;;;;;5010919;28;20103;-77
2021/09/08 05:48:30;;;;;;;32.92;21.77;;;16.90;99.90;;;;;;5014118;28;20047;-77
2021/09/08 05:50:56;;;;;;;35.15;23.75;;;16.90;99.90;;;;;;5015179;28;20026;-78
2021/09/08 05:53:22;;;;;;;33.72;23.20;;;17.00;99.90;;;;;;5011362;28;20033;-77
2021/09/08 05:55:47;;;;;;;45.35;23.35;;;17.10;99.90;;;;;;5012784;28;20026;-78
2021/09/08 05:58:13;;;;;;;37.92;23.98;;;17.20;99.90;;;;;;5013174;28;20521;-78
2021/09/08 06:00:39;;;;;;;38.17;23.20;;;17.20;99.90;;;;;;5004888;28;20038;-78
2021/09/08 06:03:04;;;;;;;46.50;24.20;;;17.20;99.90;;;;;;5014906;28;20093;-78
2021/09/08 06:05:30;;;;;;;48.03;25.15;;;17.30;99.90;;;;;;5016578;28;20076;-77
2021/09/08 06:07:55;;;;;;;39.78;24.20;;;17.40;99.90;;;;;;5016343;28;20026;-77
2021/09/08 06:10:21;;;;;;;40.47;25.38;;;17.60;99.90;;;;;;5014531;28;20030;-78
2021/09/08 06:12:48;;;;;;;45.90;25.67;;;17.60;99.90;;;;;;5013138;28;20057;-79
2021/09/08 06:15:15;;;;;;;36.03;24.27;;;17.80;99.90;;;;;;5016408;28;20487;-77
2021/09/08 06:17:41;;;;;;;39.65;24.42;;;17.80;99.90;;;;;;5014751;28;20022;-79
2021/09/08 06:20:08;;;;;;;35.25;23.30;;;17.80;99.90;;;;;;5016834;28;20037;-82
2021/09/08 06:22:34;;;;;;;34.70;23.77;;;18.00;99.90;;;;;;5013496;28;20104;-82
2021/09/08 06:24:59;;;;;;;35.42;24.33;;;18.00;99.90;;;;;;5016813;28;20454;-79
2021/09/08 06:27:25;;;;;;;33.50;23.27;;;18.30;99.90;;;;;;5018350;28;20025;-80
2021/09/08 06:29:51;;;;;;;37.40;23.10;;;18.40;99.90;;;;;;5019740;28;20032;-81
2021/09/08 06:32:16;;;;;;;32.90;23.38;;;18.40;99.90;;;;;;5017953;28;20386;-87
2021/09/08 06:34:45;;;;;;;37.70;24.83;;;18.40;99.90;;;;;;5012169;28;20041;-79
2021/09/08 06:37:11;;;;;;;37.70;25.38;;;18.50;99.90;;;;;;5006048;28;20025;-79
2021/09/08 06:39:37;;;;;;;35.47;24.95;;;18.60;99.90;;;;;;5016287;28;20475;-79
2021/09/08 06:42:03;;;;;;;38.53;25.50;;;18.60;99.90;;;;;;5005211;28;20227;-78
2021/09/08 06:44:29;;;;;;;37.50;24.65;;;18.70;99.90;;;;;;5015074;28;20486;-79
2021/09/08 06:46:55;;;;;;;36.28;24.42;;;18.80;99.90;;;;;;5011034;28;20124;-79
2021/09/08 06:49:21;;;;;;;31.13;23.27;;;18.80;99.90;;;;;;4999418;28;20072;-78
2021/09/08 06:51:47;;;;;;;34.63;23.38;;;18.80;99.90;;;;;;5003227;28;20034;-80
2021/09/08 06:54:13;;;;;;;31.90;22.77;;;19.10;99.90;;;;;;4995145;28;20109;-78
2021/09/08 06:56:39;;;;;;;33.35;23.30;;;19.10;99.90;;;;;;5010069;28;20080;-79
2021/09/08 06:59:04;;;;;;;38.10;22.90;;;19.20;99.90;;;;;;5008973;28;20029;-80
2021/09/08 07:01:30;;;;;;;28.45;22.42;;;19.30;99.90;;;;;;5009753;28;20065;-78
2021/09/08 07:03:55;;;;;;;31.17;23.00;;;19.40;99.90;;;;;;5005173;28;20041;-78
2021/09/08 07:06:22;;;;;;;41.17;21.90;;;19.60;99.90;;;;;;5006557;28;20029;-79
2021/09/08 07:08:49;;;;;;;28.45;21.35;;;19.60;99.90;;;;;;5006273;28;20030;-79
2021/09/08 07:11:15;;;;;;;36.88;21.25;;;19.60;99.90;;;;;;5010709;28;20538;-79
2021/09/08 07:13:41;;;;;;;31.27;21.63;;;19.70;99.90;;;;;;5032589;28;20025;-79
2021/09/08 07:16:06;;;;;;;32.63;21.10;;;19.90;99.90;;;;;;5012373;28;20018;-79
2021/09/08 07:18:32;;;;;;;32.53;21.38;;;20.00;99.90;;;;;;5006717;28;20033;-80
2021/09/08 07:20:57;;;;;;;30.27;20.55;;;20.10;99.90;;;;;;5008833;28;20098;-79
2021/09/08 07:23:23;;;;;;;35.50;21.02;;;20.10;99.90;;;;;;5011138;28;20026;-80
2021/09/08 07:25:49;;;;;;;31.27;21.27;;;20.20;99.90;;;;;;5014525;28;20110;-80
2021/09/08 07:28:15;;;;;;;28.35;20.58;;;20.20;99.90;;;;;;5010142;28;20157;-79
2021/09/08 07:30:41;;;;;;;29.83;21.17;;;20.20;99.90;;;;;;5008220;28;20132;-79
2021/09/08 07:33:07;;;;;;;29.30;20.10;;;20.40;99.90;;;;;;5002321;28;20017;-78
2021/09/08 07:35:32;;;;;;;29.23;20.15;;;20.50;99.90;;;;;;5015001;28;20079;-78
2021/09/08 07:38:00;;;;;;;30.83;18.30;;;21.40;99.90;;;;;;5012213;28;20037;-79
2021/09/08 07:40:26;;;;;;;25.40;17.25;;;22.90;99.90;;;;;;5011358;28;20497;-78
2021/09/08 07:42:53;;;;;;;21.80;16.95;;;24.40;99.90;;;;;;5008855;28;20026;-79
2021/09/08 07:45:19;;;;;;;27.13;16.08;;;25.50;99.90;;;;;;5009325;28;20040;-79
2021/09/08 07:47:45;;;;;;;27.30;16.25;;;26.70;99.90;;;;;;5009058;28;20124;-78
2021/09/08 07:50:12;;;;;;;22.65;16.25;;;27.80;98.00;;;;;;5012596;28;20232;-78
2021/09/08 07:52:38;;;;;;;19.08;15.07;;;27.70;96.60;;;;;;5005114;28;20038;-77
2021/09/08 07:55:05;;;;;;;23.95;15.57;;;28.30;95.60;;;;;;5002436;28;20382;-78
2021/09/08 07:57:31;;;;;;;22.52;16.27;;;28.00;95.00;;;;;;5008190;28;20030;-78
2021/09/08 07:59:56;;;;;;;27.90;16.45;;;28.20;94.80;;;;;;5009319;28;20121;-78
2021/09/08 08:02:22;;;;;;;22.98;14.88;;;28.70;94.30;;;;;;5006881;28;20026;-78
2021/09/08 08:04:48;;;;;;;20.85;14.23;;;29.40;93.50;;;;;;5003641;28;20026;-77
2021/09/08 08:07:13;;;;;;;23.17;15.30;;;29.70;92.90;;;;;;5001283;28;20036;-78
2021/09/08 08:09:42;;;;;;;21.42;14.57;;;29.90;91.50;;;;;;5006611;28;20095;-78
2021/09/08 08:12:11;;;;;;;22.88;14.40;;;30.00;91.00;;;;;;5014212;28;20053;-81
2021/09/08 08:14:38;;;;;;;21.40;14.30;;;29.50;91.20;;;;;;5004026;28;20092;-80
2021/09/08 08:17:05;;;;;;;22.92;14.60;;;30.10;91.10;;;;;;5011956;28;20030;-79
2021/09/08 08:19:32;;;;;;;23.65;13.73;;;30.80;90.10;;;;;;5016069;28;20029;-83
2021/09/08 08:21:58;;;;;;;33.20;13.27;;;31.50;88.10;;;;;;5015706;28;20634;-81
2021/09/08 08:24:25;;;;;;;23.33;13.25;;;31.20;88.10;;;;;;5009281;28;20055;-81
2021/09/08 08:26:50;;;;;;;18.30;13.23;;;32.40;85.30;;;;;;5014596;28;20097;-81
2021/09/08 08:29:16;;;;;;;21.42;13.05;;;32.10;83.30;;;;;;5011082;28;20435;-83
2021/09/08 08:31:42;;;;;;;18.08;12.88;;;31.80;84.70;;;;;;5009878;28;20043;-79
2021/09/08 08:34:07;;;;;;;15.80;11.80;;;31.70;84.10;;;;;;5002213;28;20395;-79
2021/09/08 08:36:33;;;;;;;18.60;12.43;;;32.00;82.90;;;;;;4997051;28;20097;-78
2021/09/08 08:38:58;;;;;;;17.13;12.52;;;31.60;83.60;;;;;;4998907;28;20117;-78
2021/09/08 08:41:24;;;;;;;18.50;11.82;;;31.90;83.10;;;;;;5002460;28;20037;-78
2021/09/08 08:43:50;;;;;;;15.48;11.80;;;32.30;82.10;;;;;;4989493;28;20137;-77
2021/09/08 08:46:16;;;;;;;19.75;11.43;;;32.50;79.80;;;;;;5000758;28;20418;-77
2021/09/08 08:48:42;;;;;;;13.98;11.40;;;33.10;78.40;;;;;;5002393;28;20116;-77
2021/09/08 08:51:08;;;;;;;19.77;11.07;;;33.20;77.40;;;;;;4997460;28;20053;-78
2021/09/08 08:53:34;;;;;;;14.38;10.50;;;33.10;77.50;;;;;;5001552;28;20446;-78
2021/09/08 08:56:00;;;;;;;17.08;9.95;;;33.30;73.00;;;;;;5002355;28;20035;-79
2021/09/08 08:58:26;;;;;;;14.18;9.18;;;32.20;75.50;;;;;;5002358;28;20127;-78
2021/09/08 09:01:15;;;;;;;19.70;10.15;;;32.00;76.10;;;;;;4996156;28;20037;-78
2021/09/08 09:03:41;;;;;;;14.02;9.70;;;31.20;77.50;;;;;;4999298;28;20277;-78
2021/09/08 09:06:08;;;;;;;14.88;9.38;;;31.30;77.30;;;;;;4999817;28;20030;-78
2021/09/08 09:08:34;;;;;;;10.30;8.63;;;31.50;77.20;;;;;;5005441;28;20033;-78
2021/09/08 09:11:01;;;;;;;13.23;8.88;;;32.00;77.20;;;;;;5000885;28;20030;-79
2021/09/08 09:13:32;;;;;;;14.77;9.02;;;32.40;76.20;;;;;;4973327;28;20368;-77
2021/09/08 09:16:09;;;;;;;10.80;8.27;;;32.20;76.60;;;;;;4995202;28;20030;-77
2021/09/08 09:18:40;;;;;;;12.35;8.88;;;31.30;78.20;;;;;;5001485;28;20478;-78
2021/09/08 09:21:14;;;;;;;9.38;7.90;;;31.50;76.60;;;;;;4996673;28;20060;-78
2021/09/08 09:23:57;;;;;;;10.35;8.43;;;32.10;74.80;;;;;;4988243;28;20272;-77
2021/09/08 09:26:29;;;;;;;12.13;8.18;;;31.90;72.30;;;;;;4999443;28;20053;-78
2021/09/08 09:29:12;;;;;;;13.40;8.63;;;30.70;74.20;;;;;;4985326;28;20033;-77
2021/09/08 09:31:57;;;;;;;9.82;8.23;;;30.70;73.90;;;;;;4992573;28;20530;-77
2021/09/08 09:34:27;;;;;;;8.63;7.53;;;30.80;72.30;;;;;;4995558;28;20014;-77
2021/09/08 09:36:54;;;;;;;9.70;7.47;;;31.30;72.50;;;;;;4996213;28;20029;-77
2021/09/08 09:39:20;;;;;;;8.18;7.40;;;31.70;71.80;;;;;;5005523;28;20037;-78
2021/09/08 09:41:46;;;;;;;12.63;7.78;;;31.90;71.70;;;;;;4997207;28;20030;-78
2021/09/08 09:44:16;;;;;;;11.13;7.53;;;32.40;69.00;;;;;;4993011;28;20092;-78
2021/09/08 09:46:44;;;;;;;11.90;7.63;;;32.20;69.20;;;;;;5001356;28;20010;-78
2021/09/08 09:49:12;;;;;;;9.65;7.40;;;32.10;69.30;;;;;;5009127;28;20541;-79
2021/09/08 09:51:38;;;;;;;8.82;7.05;;;32.20;67.90;;;;;;5001034;28;20029;-79
2021/09/08 09:54:04;;;;;;;9.27;7.00;;;31.40;69.50;;;;;;4993463;28;20108;-78
2021/09/08 09:56:30;;;;;;;8.23;7.35;;;31.40;70.00;;;;;;4996360;28;20038;-78
2021/09/08 09:58:56;;;;;;;8.05;7.25;;;31.30;69.70;;;;;;5000898;28;20029;-78
2021/09/08 10:01:22;;;;;;;9.70;7.15;;;31.30;69.40;;;;;;4998885;28;20030;-79
2021/09/08 10:03:48;;;;;;;8.82;7.32;;;31.10;68.90;;;;;;4995794;28;20278;-80
2021/09/08 10:06:14;;;;;;;8.75;6.85;;;31.10;70.00;;;;;;5002478;28;20027;-81
2021/09/08 10:08:53;;;;;;;8.45;6.43;;;31.30;70.20;;;;;;5004427;28;20022;-79
2021/09/08 10:11:32;;;;;;;7.65;6.85;;;30.70;70.40;;;;;;5000719;28;20026;-79
2021/09/08 10:14:04;;;;;;;7.70;6.93;;;30.80;69.40;;;;;;4998411;28;20033;-79
2021/09/08 10:16:32;;;;;;;7.70;6.90;;;31.60;67.40;;;;;;4999951;28;20088;-79
2021/09/08 10:19:05;;;;;;;9.55;6.72;;;31.50;67.30;;;;;;5009622;28;20037;-79
2021/09/08 10:21:31;;;;;;;9.15;6.57;;;31.50;67.80;;;;;;4994318;28;20033;-79
2021/09/08 10:24:04;;;;;;;9.95;7.20;;;31.30;67.00;;;;;;5011318;28;20122;-79
2021/09/08 10:26:32;;;;;;;9.35;7.03;;;31.90;67.40;;;;;;5005916;28;20094;-80
2021/09/08 10:29:06;;;;;;;10.35;6.60;;;32.00;65.50;;;;;;5007735;28;20031;-79
2021/09/08 10:31:40;;;;;;;6.70;6.10;;;32.60;65.30;;;;;;4999206;28;20041;-79
2021/09/08 10:34:07;;;;;;;11.27;7.38;;;32.00;67.80;;;;;;5007754;28;20406;-79
2021/09/08 10:36:35;;;;;;;8.50;6.93;;;32.00;64.10;;;;;;5006777;28;20056;-80
2021/09/08 10:39:09;;;;;;;8.63;6.53;;;31.70;66.70;;;;;;5009709;28;20018;-79
2021/09/08 10:41:42;;;;;;;8.68;7.50;;;32.20;67.20;;;;;;4995332;28;20052;-79
2021/09/08 10:44:08;;;;;;;8.18;7.47;;;32.40;64.70;;;;;;5014598;28;20025;-79
2021/09/08 10:46:51;;;;;;;9.10;7.20;;;32.30;65.10;;;;;;5013121;28;20052;-80
2021/09/08 10:49:36;;;;;;;7.40;6.63;;;32.50;65.50;;;;;;5015367;28;20076;-79
2021/09/08 10:52:02;;;;;;;10.68;7.20;;;33.60;62.80;;;;;;5010110;28;20450;-79
2021/09/08 10:54:27;;;;;;;8.05;6.30;;;33.30;62.10;;;;;;5015787;28;20391;-79
2021/09/08 10:56:53;;;;;;;11.27;6.82;;;33.30;61.20;;;;;;5016206;28;20033;-78
2021/09/08 10:59:19;;;;;;;10.43;6.78;;;32.60;63.20;;;;;;5011038;28;20030;-78
2021/09/08 11:01:45;;;;;;;7.72;7.00;;;32.90;64.70;;;;;;5013501;28;20113;-79
2021/09/08 11:04:15;;;;;;;9.57;7.20;;;32.80;63.10;;;;;;5001326;28;20030;-78
2021/09/08 11:06:44;;;;;;;8.23;7.40;;;32.80;63.10;;;;;;5008407;28;20030;-78
2021/09/08 11:09:12;;;;;;;11.70;7.18;;;32.80;62.90;;;;;;5008245;28;20479;-78
2021/09/08 11:12:07;;;;;;;10.10;7.22;;;32.50;63.00;;;;;;5003822;28;20041;-78
2021/09/08 11:14:51;;;;;;;8.23;6.80;;;33.00;62.30;;;;;;4998538;28;20515;-78
2021/09/08 11:17:21;;;;;;;7.72;6.93;;;33.20;61.90;;;;;;5020315;28;20364;-78
2021/09/08 11:19:52;;;;;;;7.03;6.28;;;33.30;62.70;;;;;;5007454;28;20038;-78
2021/09/08 11:22:19;;;;;;;8.27;6.25;;;34.00;59.80;;;;;;5004361;28;20497;-78
2021/09/08 11:24:44;;;;;;;11.18;6.80;;;34.50;59.30;;;;;;5013324;28;20037;-78
2021/09/08 11:27:11;;;;;;;8.07;6.28;;;34.00;58.20;;;;;;5014159;28;20498;-78
2021/09/08 11:29:36;;;;;;;6.63;6.03;;;34.10;58.70;;;;;;5012997;28;20030;-78
2021/09/08 11:32:02;;;;;;;7.30;6.35;;;33.60;59.80;;;;;;5013611;28;20026;-78
2021/09/08 11:34:28;;;;;;;9.45;6.78;;;34.10;60.20;;;;;;5014541;28;20212;-78
2021/09/08 11:36:56;;;;;;;12.55;7.15;;;34.00;59.60;;;;;;5004151;28;20531;-79
2021/09/08 11:39:22;;;;;;;10.60;6.18;;;34.30;58.50;;;;;;5014006;28;20026;-78
2021/09/08 11:42:08;;;;;;;7.63;6.38;;;33.20;60.40;;;;;;5014585;28;20176;-78
2021/09/08 11:44:33;;;;;;;8.70;5.65;;;32.40;60.70;;;;;;5014369;28;20197;-78
2021/09/08 11:46:59;;;;;;;6.75;6.10;;;32.70;60.10;;;;;;5014174;28;20062;-78
2021/09/08 11:49:25;;;;;;;6.95;6.15;;;33.40;59.00;;;;;;5013929;28;20029;-78
2021/09/08 11:51:51;;;;;;;7.45;6.38;;;33.10;58.90;;;;;;5001704;28;20041;-79
2021/09/08 11:54:19;;;;;;;7.25;5.85;;;32.90;58.90;;;;;;5012907;28;20068;-78
2021/09/08 11:57:01;;;;;;;6.35;5.75;;;32.70;59.80;;;;;;5013268;28;20022;-78
2021/09/08 11:59:34;;;;;;;7.97;6.50;;;32.80;59.60;;;;;;5015314;28;20037;-78
2021/09/08 12:02:01;;;;;;;9.82;6.45;;;32.50;59.80;;;;;;5013372;28;20124;-78
2021/09/08 12:04:29;;;;;;;7.47;5.88;;;33.30;58.40;;;;;;5013241;28;20105;-78
2021/09/08 12:07:06;;;;;;;10.95;6.63;;;33.30;58.80;;;;;;5004700;28;20021;-79
2021/09/08 12:09:35;;;;;;;10.20;6.90;;;33.50;58.50;;;;;;5015629;28;20565;-78
2021/09/08 12:12:09;;;;;;;6.85;6.15;;;33.40;58.90;;;;;;4994150;28;20022;-78
2021/09/08 12:14:34;;;;;;;9.40;6.32;;;33.90;58.60;;;;;;5000152;28;20029;-78
2021/09/08 12:17:01;;;;;;;7.28;6.22;;;34.60;57.80;;;;;;5010866;28;20049;-78
2021/09/08 12:19:37;;;;;;;8.20;6.20;;;34.20;57.50;;;;;;5012661;28;20165;-77
2021/09/08 12:22:09;;;;;;;7.38;6.68;;;33.70;58.40;;;;;;5013179;28;20030;-77
2021/09/08 12:24:40;;;;;;;;;;;34.20;59.40;;;;;;5012739;28;20010;-77
2021/09/08 12:27:27;;;;;;;7.05;6.45;;;34.90;57.60;;;;;;5012841;28;19913;-76
2021/09/08 12:29:55;;;;;;;7.07;6.47;;;34.40;57.00;;;;;;5012529;28;20121;-77